Terminal Aerodrome Forecast
Issued by NWS Pocatello, ID

Home | Current Version | Previous Version | Text Only | Print | Product List | Glossary On
Versions: 1 2 3 4 5 6 7 8 9 10 11 12 13 14 15 16 17 18
803
FTUS45 KPIH 181740
TAFPIH
TAF
KPIH 181740Z 1818/1918 02007KT P6SM FEW060 BKN160
     FM190300 05007KT P6SM SCT025 BKN060 OVC100
     FM190900 14010KT 6SM BR VCSH SCT025 OVC060
     FM191100 16010KT 2SM -SN BR SCT025 OVC040
     FM191400 18010KT 1SM -SN BR BKN008 OVC025=

USA.gov is the U.S. government's official web portal to all federal, state and local government web resources and services.